Time;durP1;ratioP1;P1;durP2;ratioP2;P2;SDS_P1;SDS_P2;PMS_P1;PMS_P2;Temp;Humidity;BMP_temperature;BMP_pressure;BME280_temperature;BME280_humidity;BME280_pressure;Samples;Min_cycle;Max_cycle;Signal;HPM_P1;HPM_P2
2021/01/25 00:00:00;;;;;;;2.50;2.30;;;5.60;68.50;;;;;;5092891;28;20652;-52
2021/01/25 00:02:26;;;;;;;6.20;2.53;;;5.60;68.30;;;;;;5094466;28;20689;-50
2021/01/25 00:04:53;;;;;;;8.03;3.17;;;5.70;68.60;;;;;;5093304;28;20632;-52
2021/01/25 00:07:21;;;;;;;4.57;3.00;;;5.60;68.70;;;;;;5092158;28;20663;-52
2021/01/25 00:09:48;;;;;;;3.20;2.73;;;5.70;69.50;;;;;;5093325;28;20616;-52
2021/01/25 00:12:14;;;;;;;3.60;3.30;;;5.80;69.50;;;;;;5092744;28;20695;-52
2021/01/25 00:14:41;;;;;;;6.23;2.87;;;5.80;69.30;;;;;;5091846;28;20671;-52
2021/01/25 00:17:08;;;;;;;3.53;3.20;;;5.90;69.20;;;;;;5088296;28;21247;-53
2021/01/25 00:19:34;;;;;;;6.90;2.40;;;5.90;69.00;;;;;;5091565;28;21175;-52
2021/01/25 00:22:01;;;;;;;5.27;2.90;;;5.90;69.30;;;;;;5092273;28;20768;-51
2021/01/25 00:24:29;;;;;;;2.60;2.30;;;6.00;69.20;;;;;;5091598;28;20664;-52
2021/01/25 00:26:55;;;;;;;3.87;2.83;;;6.00;68.90;;;;;;5092062;28;20676;-51
2021/01/25 00:29:22;;;;;;;3.50;3.17;;;6.10;68.70;;;;;;5092053;28;20625;-52
2021/01/25 00:31:49;;;;;;;3.30;2.30;;;6.10;68.90;;;;;;5092741;28;21216;-52
2021/01/25 00:34:16;;;;;;;5.20;2.53;;;6.20;69.20;;;;;;5091203;28;20636;-52
2021/01/25 00:36:43;;;;;;;3.27;2.43;;;6.10;70.00;;;;;;5093501;28;20684;-52
2021/01/25 00:39:10;;;;;;;3.47;2.23;;;6.20;71.10;;;;;;5092883;28;21005;-51
2021/01/25 00:41:37;;;;;;;3.80;2.47;;;6.10;72.60;;;;;;5093671;28;21025;-52
2021/01/25 00:44:05;;;;;;;3.37;2.90;;;6.10;73.40;;;;;;5093548;28;21048;-52
2021/01/25 00:46:32;;;;;;;3.63;3.03;;;6.10;74.10;;;;;;5093340;28;20619;-51
2021/01/25 00:48:58;;;;;;;5.03;2.60;;;6.10;74.80;;;;;;5093466;28;20685;-51
2021/01/25 00:51:25;;;;;;;3.53;2.20;;;6.10;75.60;;;;;;5092615;28;20623;-52
2021/01/25 00:53:52;;;;;;;3.90;3.27;;;6.10;76.30;;;;;;5092923;28;21248;-51
2021/01/25 00:56:18;;;;;;;3.67;3.40;;;6.00;77.50;;;;;;5093015;28;20684;-52
2021/01/25 00:58:46;;;;;;;4.20;3.30;;;6.00;79.00;;;;;;5093072;28;20648;-52
2021/01/25 01:01:13;;;;;;;3.67;3.37;;;6.00;79.20;;;;;;5093169;28;20670;-52
2021/01/25 01:03:40;;;;;;;3.40;2.97;;;6.00;79.10;;;;;;5092359;28;21008;-51
2021/01/25 01:06:06;;;;;;;3.40;2.57;;;5.90;79.40;;;;;;5092791;28;20635;-51
2021/01/25 01:08:33;;;;;;;4.67;2.80;;;5.90;79.80;;;;;;5092792;28;20992;-52
2021/01/25 01:11:00;;;;;;;7.30;3.00;;;5.90;79.50;;;;;;5092341;28;21164;-51
2021/01/25 01:13:27;;;;;;;5.70;4.63;;;5.80;79.50;;;;;;5093494;28;20697;-53
2021/01/25 01:15:54;;;;;;;3.37;3.07;;;5.90;79.70;;;;;;5092243;28;20666;-52
2021/01/25 01:18:21;;;;;;;3.60;3.03;;;5.90;79.90;;;;;;5090100;28;20644;-51
2021/01/25 01:20:48;;;;;;;5.67;3.60;;;5.80;79.50;;;;;;5092148;28;20616;-51
2021/01/25 01:23:15;;;;;;;2.70;2.07;;;5.80;79.50;;;;;;5094091;28;20621;-52
2021/01/25 01:25:42;;;;;;;3.00;2.73;;;5.80;79.20;;;;;;5094548;28;20608;-51
2021/01/25 01:28:09;;;;;;;3.23;2.93;;;5.70;79.40;;;;;;5094064;28;21056;-51
2021/01/25 01:30:36;;;;;;;3.17;2.53;;;5.70;80.30;;;;;;5094088;28;21019;-52
2021/01/25 01:33:03;;;;;;;3.47;3.17;;;5.70;80.90;;;;;;5093838;28;20777;-52
2021/01/25 01:35:30;;;;;;;4.00;3.50;;;5.70;81.40;;;;;;5094089;28;20645;-52
2021/01/25 01:37:57;;;;;;;3.77;3.47;;;5.90;81.30;;;;;;5093629;28;20717;-51
2021/01/25 01:40:23;;;;;;;3.63;3.33;;;5.90;80.20;;;;;;5093258;28;20637;-52
2021/01/25 01:42:50;;;;;;;4.57;2.77;;;6.00;79.10;;;;;;5082854;28;20626;-52
2021/01/25 01:45:17;;;;;;;4.10;3.10;;;5.90;78.20;;;;;;5084692;28;20633;-51
2021/01/25 01:47:44;;;;;;;3.50;3.20;;;6.00;78.40;;;;;;5093623;28;21235;-52
2021/01/25 01:50:14;;;;;;;2.90;2.20;;;6.00;78.70;;;;;;5093262;28;20643;-51
2021/01/25 01:52:41;;;;;;;2.93;2.63;;;5.90;78.00;;;;;;5092251;28;20630;-52
2021/01/25 01:55:09;;;;;;;4.10;3.70;;;5.80;77.70;;;;;;5093176;28;20629;-52
2021/01/25 01:57:36;;;;;;;3.03;2.53;;;5.90;78.30;;;;;;5092867;28;21283;-51
2021/01/25 02:00:03;;;;;;;3.30;3.00;;;5.90;78.20;;;;;;5093788;28;20620;-53
2021/01/25 02:02:30;;;;;;;3.17;2.87;;;6.00;78.70;;;;;;5093463;28;20620;-52
2021/01/25 02:04:57;;;;;;;4.33;2.80;;;6.00;78.40;;;;;;5092544;28;21132;-52
2021/01/25 02:07:24;;;;;;;3.60;3.30;;;6.00;78.10;;;;;;5092394;28;20680;-52
2021/01/25 02:09:51;;;;;;;6.53;4.70;;;6.00;78.80;;;;;;5092092;28;20722;-52
2021/01/25 02:12:19;;;;;;;4.47;2.60;;;6.00;78.80;;;;;;5092456;28;21043;-52
2021/01/25 02:14:46;;;;;;;3.20;2.90;;;5.90;78.70;;;;;;5092739;28;20707;-51
2021/01/25 02:17:13;;;;;;;5.00;3.00;;;5.90;79.00;;;;;;5091687;28;20810;-52
2021/01/25 02:19:42;;;;;;;4.23;3.83;;;5.90;80.20;;;;;;5092391;28;20973;-52
2021/01/25 02:22:16;;;;;;;4.03;3.50;;;6.00;79.90;;;;;;5092761;28;20630;-52
2021/01/25 02:24:45;;;;;;;4.67;3.20;;;6.00;79.30;;;;;;5093256;28;20616;-52
2021/01/25 02:27:29;;;;;;;7.03;4.30;;;6.00;79.30;;;;;;5093550;28;20652;-51
2021/01/25 02:29:56;;;;;;;3.80;3.50;;;6.00;79.30;;;;;;5074071;28;21207;-52
2021/01/25 02:32:22;;;;;;;3.50;3.00;;;6.00;79.40;;;;;;5092419;28;20624;-52
2021/01/25 02:34:49;;;;;;;5.20;3.07;;;6.10;80.00;;;;;;5092624;28;20664;-51
2021/01/25 02:37:16;;;;;;;4.20;3.33;;;6.10;80.60;;;;;;5091219;28;20705;-52
2021/01/25 02:39:43;;;;;;;3.73;2.93;;;6.10;80.10;;;;;;5091177;28;21190;-51
2021/01/25 02:42:09;;;;;;;6.60;3.80;;;6.20;79.70;;;;;;5090492;28;20641;-52
2021/01/25 02:44:37;;;;;;;3.87;3.27;;;6.20;79.30;;;;;;5089585;28;20681;-52
2021/01/25 02:47:04;;;;;;;4.43;3.20;;;6.20;81.70;;;;;;5090310;28;20642;-52
2021/01/25 02:49:31;;;;;;;3.43;2.80;;;6.30;83.20;;;;;;5089867;28;20683;-52
2021/01/25 02:51:57;;;;;;;4.07;3.67;;;6.30;82.40;;;;;;5090134;28;20701;-52
2021/01/25 02:54:24;;;;;;;4.43;3.40;;;6.30;81.70;;;;;;5090093;28;20682;-52
2021/01/25 02:56:51;;;;;;;3.40;3.10;;;6.30;80.10;;;;;;5089223;28;20674;-52
2021/01/25 02:59:18;;;;;;;2.60;2.37;;;6.30;79.80;;;;;;5090224;28;20982;-52
2021/01/25 03:01:46;;;;;;;3.70;3.40;;;6.30;79.90;;;;;;5089759;28;20801;-52
2021/01/25 03:04:13;;;;;;;6.00;3.87;;;6.30;80.20;;;;;;5089014;28;20686;-50
2021/01/25 03:06:41;;;;;;;3.90;3.13;;;6.40;79.80;;;;;;5089189;28;20651;-52
2021/01/25 03:09:07;;;;;;;3.53;3.23;;;6.40;78.80;;;;;;5089814;28;20741;-52
2021/01/25 03:11:34;;;;;;;10.97;3.17;;;6.40;78.50;;;;;;5089862;28;20675;-52
2021/01/25 03:14:08;;;;;;;3.90;3.50;;;6.40;79.00;;;;;;5089678;28;20663;-51
2021/01/25 03:16:35;;;;;;;2.87;2.67;;;6.40;79.10;;;;;;5090084;28;20654;-51
2021/01/25 03:19:02;;;;;;;3.80;2.60;;;6.40;78.90;;;;;;5089740;28;20626;-51
2021/01/25 03:21:29;;;;;;;3.70;3.13;;;6.50;78.50;;;;;;5089980;28;20991;-50
2021/01/25 03:23:56;;;;;;;3.23;2.90;;;6.50;78.00;;;;;;5089943;28;20626;-52
2021/01/25 03:26:23;;;;;;;4.30;3.07;;;6.50;78.30;;;;;;5090176;28;21002;-51
2021/01/25 03:28:49;;;;;;;3.40;3.10;;;6.50;77.30;;;;;;5090058;28;21176;-51
2021/01/25 03:31:16;;;;;;;3.63;2.90;;;6.50;76.80;;;;;;5089570;28;20689;-52
2021/01/25 03:33:43;;;;;;;3.30;3.00;;;6.50;76.10;;;;;;5089483;28;20638;-52
2021/01/25 03:36:10;;;;;;;2.43;2.23;;;6.50;76.30;;;;;;5089663;28;21206;-51
2021/01/25 03:38:37;;;;;;;4.00;3.60;;;6.50;76.50;;;;;;5089240;28;20742;-51
2021/01/25 03:41:05;;;;;;;3.73;3.43;;;6.50;77.20;;;;;;5089802;28;20655;-50
2021/01/25 03:43:31;;;;;;;4.10;3.37;;;6.50;77.60;;;;;;5089269;28;20995;-51
2021/01/25 03:45:58;;;;;;;5.93;3.70;;;6.50;77.30;;;;;;5089663;28;20617;-51
2021/01/25 03:48:25;;;;;;;3.77;3.40;;;6.50;77.30;;;;;;5089455;28;20644;-52
2021/01/25 03:50:52;;;;;;;4.33;3.60;;;6.50;77.10;;;;;;5089505;28;20610;-52
2021/01/25 03:53:19;;;;;;;4.87;3.70;;;6.50;77.10;;;;;;5089152;28;20964;-51
2021/01/25 03:55:46;;;;;;;3.83;3.47;;;6.60;77.20;;;;;;5089627;28;20746;-50
2021/01/25 03:58:13;;;;;;;4.03;3.20;;;6.50;77.00;;;;;;5089617;28;20831;-51
2021/01/25 04:00:39;;;;;;;3.30;3.00;;;6.50;76.90;;;;;;5089656;28;20661;-51
2021/01/25 04:03:06;;;;;;;5.77;5.27;;;6.60;77.20;;;;;;5088134;28;20658;-51
2021/01/25 04:05:33;;;;;;;4.40;3.60;;;6.60;76.80;;;;;;5085810;28;21035;-51
2021/01/25 04:07:59;;;;;;;3.13;2.93;;;6.60;76.80;;;;;;5089127;28;20673;-51
2021/01/25 04:10:27;;;;;;;4.20;3.80;;;6.60;76.70;;;;;;5092841;28;20754;-52
2021/01/25 04:12:54;;;;;;;6.83;3.90;;;6.60;75.70;;;;;;5092813;28;21217;-51
2021/01/25 04:15:20;;;;;;;4.00;3.60;;;6.60;75.80;;;;;;5092730;28;20664;-51
2021/01/25 04:17:47;;;;;;;3.70;3.40;;;6.60;76.30;;;;;;5083382;28;20696;-51
2021/01/25 04:20:14;;;;;;;15.10;3.30;;;6.60;76.30;;;;;;5082459;28;21168;-52
2021/01/25 04:22:41;;;;;;;6.67;3.40;;;6.60;76.80;;;;;;5092798;28;21193;-51
2021/01/25 04:25:09;;;;;;;3.07;2.87;;;6.60;76.80;;;;;;5092581;28;20661;-52
2021/01/25 04:27:36;;;;;;;6.17;4.07;;;6.60;76.60;;;;;;5092668;28;20680;-51
2021/01/25 04:30:05;;;;;;;4.40;2.83;;;6.70;76.80;;;;;;5092828;28;20642;-51
2021/01/25 04:32:35;;;;;;;5.07;4.60;;;6.60;77.30;;;;;;5092575;28;21204;-51
2021/01/25 04:35:02;;;;;;;3.73;3.30;;;6.70;77.20;;;;;;5091900;28;20988;-51
2021/01/25 04:37:29;;;;;;;3.57;3.27;;;6.70;76.80;;;;;;5109571;22;20746;-61
2021/01/25 04:39:56;;;;;;;3.07;2.87;;;6.70;76.50;;;;;;5113200;28;20628;-59
2021/01/25 04:42:23;;;;;;;3.50;3.20;;;6.60;77.00;;;;;;5114443;28;20681;-59
2021/01/25 04:44:51;;;;;;;4.83;4.40;;;6.50;77.60;;;;;;5113813;28;20665;-60
2021/01/25 04:47:18;;;;;;;5.20;4.80;;;6.40;78.50;;;;;;5114027;28;20609;-60
2021/01/25 04:49:45;;;;;;;6.57;3.50;;;6.40;79.20;;;;;;5112929;28;20619;-57
2021/01/25 04:52:12;;;;;;;3.87;3.50;;;6.40;78.80;;;;;;5114077;28;20649;-57
2021/01/25 04:54:39;;;;;;;5.17;3.43;;;6.30;78.80;;;;;;5113817;28;21041;-59
2021/01/25 04:57:06;;;;;;;5.13;4.70;;;6.20;78.70;;;;;;5113382;28;21063;-58
2021/01/25 04:59:33;;;;;;;5.73;4.10;;;6.20;79.20;;;;;;5114005;28;20619;-59
2021/01/25 05:02:01;;;;;;;4.17;3.77;;;6.10;79.30;;;;;;5100631;28;20682;-58
2021/01/25 05:04:27;;;;;;;5.80;4.67;;;6.10;79.70;;;;;;5095636;28;20719;-58
2021/01/25 05:06:54;;;;;;;8.40;5.00;;;6.00;80.70;;;;;;5113827;28;21166;-59
2021/01/25 05:09:21;;;;;;;5.23;4.50;;;6.00;81.40;;;;;;5111875;28;20705;-59
2021/01/25 05:11:57;;;;;;;10.30;4.70;;;5.90;81.30;;;;;;5101730;28;20674;-59
2021/01/25 05:14:23;;;;;;;5.00;4.60;;;5.80;82.40;;;;;;5098188;28;21188;-59
2021/01/25 05:16:50;;;;;;;5.57;4.83;;;5.70;83.90;;;;;;5112874;28;20639;-58
2021/01/25 05:19:18;;;;;;;10.10;4.90;;;5.70;84.80;;;;;;5111399;28;20701;-58
2021/01/25 05:21:45;;;;;;;4.83;4.30;;;5.80;85.50;;;;;;5092704;28;20636;-60
2021/01/25 05:24:13;;;;;;;5.83;4.73;;;5.70;86.80;;;;;;5101482;28;20619;-59
2021/01/25 05:26:50;;;;;;;7.13;5.50;;;5.70;86.90;;;;;;5102987;28;20632;-59
2021/01/25 05:29:22;;;;;;;5.60;5.10;;;5.70;87.20;;;;;;5099072;28;20705;-60
2021/01/25 05:31:49;;;;;;;5.50;5.00;;;5.80;87.60;;;;;;5113046;28;20646;-59
2021/01/25 05:34:18;;;;;;;4.90;4.50;;;5.80;88.00;;;;;;5110837;28;21025;-60
2021/01/25 05:36:45;;;;;;;7.27;6.50;;;5.70;88.20;;;;;;5097265;28;20694;-60
2021/01/25 05:39:14;;;;;;;6.93;6.23;;;5.60;88.70;;;;;;5098439;28;20656;-59
2021/01/25 05:41:51;;;;;;;6.80;6.10;;;5.70;88.70;;;;;;5113036;28;20632;-59
2021/01/25 05:44:18;;;;;;;6.97;6.37;;;5.60;89.20;;;;;;5111816;28;20691;-60
2021/01/25 05:46:44;;;;;;;9.50;7.70;;;5.60;89.70;;;;;;5092377;28;21163;-57
2021/01/25 05:49:11;;;;;;;9.67;8.70;;;5.70;89.80;;;;;;5092186;28;21055;-59
2021/01/25 05:51:40;;;;;;;7.50;6.80;;;5.70;89.80;;;;;;5092228;28;20617;-59
2021/01/25 05:54:07;;;;;;;8.73;7.80;;;5.80;89.70;;;;;;5092487;28;21171;-59
2021/01/25 05:56:34;;;;;;;8.70;7.90;;;5.80;89.90;;;;;;5092132;28;21215;-60
2021/01/25 05:59:01;;;;;;;9.67;8.77;;;5.80;89.90;;;;;;5092287;28;20682;-59
2021/01/25 06:01:28;;;;;;;7.77;6.97;;;5.80;90.00;;;;;;5092396;28;21175;-60
2021/01/25 06:03:55;;;;;;;8.80;7.90;;;5.90;89.80;;;;;;5093624;28;20724;-58
2021/01/25 06:06:25;;;;;;;11.20;8.20;;;5.90;89.30;;;;;;5105441;28;20624;-59
2021/01/25 06:08:58;;;;;;;10.00;8.93;;;5.90;88.70;;;;;;5091748;28;21049;-59
2021/01/25 06:11:28;;;;;;;9.37;8.47;;;5.80;89.50;;;;;;5092270;28;20681;-60
2021/01/25 06:13:56;;;;;;;10.03;8.37;;;5.70;90.00;;;;;;5103563;28;20631;-59
2021/01/25 06:16:24;;;;;;;9.90;7.23;;;5.70;90.20;;;;;;5112247;28;20658;-59
2021/01/25 06:18:52;;;;;;;10.80;9.03;;;5.70;90.20;;;;;;5111861;28;20659;-60
2021/01/25 06:21:20;;;;;;;9.50;8.60;;;5.70;90.30;;;;;;5110428;28;20623;-61
2021/01/25 06:23:47;;;;;;;11.00;10.00;;;5.80;90.60;;;;;;5111542;28;20637;-59
2021/01/25 06:26:14;;;;;;;10.67;9.57;;;5.80;90.40;;;;;;5111754;28;20632;-58
2021/01/25 06:28:42;;;;;;;9.43;8.40;;;5.80;90.50;;;;;;5111985;28;20656;-58
2021/01/25 06:31:09;;;;;;;11.20;9.60;;;5.90;90.40;;;;;;5111404;28;21166;-58
2021/01/25 06:33:37;;;;;;;8.97;8.00;;;5.90;90.10;;;;;;5110648;28;20653;-60
2021/01/25 06:36:07;;;;;;;9.47;8.57;;;5.90;90.20;;;;;;5111525;28;20631;-60
2021/01/25 06:38:35;;;;;;;10.90;9.80;;;5.90;90.30;;;;;;5111490;28;20671;-59
2021/01/25 06:41:08;;;;;;;9.20;8.30;;;6.00;90.10;;;;;;5111856;28;20776;-60
2021/01/25 06:43:35;;;;;;;10.67;8.20;;;6.00;90.20;;;;;;5111539;28;20627;-61
2021/01/25 06:46:02;;;;;;;10.50;8.10;;;6.00;90.10;;;;;;5111864;28;20595;-58
2021/01/25 06:48:29;;;;;;;9.40;8.60;;;6.00;90.00;;;;;;5111816;28;20713;-59
2021/01/25 06:50:56;;;;;;;11.07;9.97;;;6.00;89.90;;;;;;5093498;28;20621;-58
2021/01/25 06:53:26;;;;;;;9.93;9.03;;;6.00;89.90;;;;;;5110154;28;20673;-60
2021/01/25 06:55:57;;;;;;;8.77;7.97;;;6.00;90.00;;;;;;5093317;28;20620;-60
2021/01/25 06:58:27;;;;;;;10.23;9.07;;;6.00;90.20;;;;;;5112436;28;20647;-59
2021/01/25 07:00:55;;;;;;;9.90;9.10;;;6.00;90.20;;;;;;5093274;28;21209;-59
2021/01/25 07:03:21;;;;;;;10.30;8.53;;;6.00;90.00;;;;;;5111505;28;20632;-58
2021/01/25 07:05:49;;;;;;;9.17;7.80;;;6.00;90.10;;;;;;5111384;28;20623;-58
2021/01/25 07:08:21;;;;;;;10.03;8.83;;;5.90;90.10;;;;;;5111198;28;20644;-57
2021/01/25 07:10:49;;;;;;;11.47;10.47;;;5.70;90.30;;;;;;5111458;28;20645;-58
2021/01/25 07:13:16;;;;;;;9.77;8.73;;;5.70;90.60;;;;;;5111224;28;20634;-59
2021/01/25 07:15:43;;;;;;;9.93;9.03;;;5.80;90.70;;;;;;5110956;28;20656;-56
2021/01/25 07:18:11;;;;;;;11.20;10.00;;;5.80;90.70;;;;;;5110940;28;20752;-58
2021/01/25 07:20:38;;;;;;;12.43;10.63;;;5.90;90.70;;;;;;5111191;28;21003;-59
2021/01/25 07:23:04;;;;;;;10.23;9.23;;;5.90;90.60;;;;;;5111027;28;20655;-58
2021/01/25 07:25:31;;;;;;;11.80;10.60;;;5.90;90.90;;;;;;5111358;28;20680;-57
2021/01/25 07:28:02;;;;;;;10.90;9.80;;;6.00;90.70;;;;;;5111227;28;20651;-59
2021/01/25 07:30:31;;;;;;;13.60;9.63;;;6.00;90.80;;;;;;5111552;28;20627;-58
2021/01/25 07:33:01;;;;;;;11.93;10.23;;;6.00;91.00;;;;;;5111097;28;20686;-58
2021/01/25 07:35:29;;;;;;;12.43;10.17;;;6.10;91.10;;;;;;5111347;28;20645;-57
2021/01/25 07:37:56;;;;;;;10.17;9.07;;;6.10;90.90;;;;;;5110761;28;20756;-57
2021/01/25 07:40:23;;;;;;;12.97;11.40;;;6.10;90.80;;;;;;5111116;28;20616;-57
2021/01/25 07:42:51;;;;;;;11.40;10.20;;;6.20;90.70;;;;;;5111674;28;20624;-56
2021/01/25 07:45:18;;;;;;;10.50;9.40;;;6.20;90.40;;;;;;5114573;28;20619;-57
2021/01/25 07:47:45;;;;;;;9.93;8.93;;;6.20;90.30;;;;;;5115018;28;21099;-59
2021/01/25 07:50:12;;;;;;;12.67;11.37;;;6.20;90.30;;;;;;5115071;28;20631;-57
2021/01/25 07:52:40;;;;;;;11.60;10.50;;;6.20;90.40;;;;;;5115657;28;20636;-58
2021/01/25 07:55:12;;;;;;;10.10;9.10;;;6.20;90.40;;;;;;5116329;28;20638;-57
2021/01/25 07:57:38;;;;;;;12.43;9.80;;;6.20;90.40;;;;;;5116363;28;20659;-57
2021/01/25 08:00:18;;;;;;;9.50;8.53;;;6.30;90.30;;;;;;5116615;28;20642;-59
2021/01/25 08:02:48;;;;;;;8.80;8.10;;;6.20;90.30;;;;;;5116761;28;20631;-58
2021/01/25 08:05:16;;;;;;;9.60;8.70;;;6.30;90.10;;;;;;5115003;28;21213;-59
2021/01/25 08:07:44;;;;;;;8.97;8.17;;;6.20;89.50;;;;;;5115366;28;20895;-58
2021/01/25 08:10:12;;;;;;;11.23;9.73;;;6.20;89.20;;;;;;5114084;28;20627;-57
2021/01/25 08:12:39;;;;;;;9.03;8.23;;;6.20;89.10;;;;;;5115105;28;20624;-58
2021/01/25 08:15:10;;;;;;;8.43;7.60;;;6.20;89.20;;;;;;5114431;28;20624;-57
2021/01/25 08:17:38;;;;;;;8.93;8.10;;;6.10;89.30;;;;;;5114279;28;21255;-58
2021/01/25 08:20:09;;;;;;;10.17;9.17;;;6.10;89.30;;;;;;5095954;28;20628;-59
2021/01/25 08:22:37;;;;;;;9.40;8.27;;;6.10;89.30;;;;;;5096288;28;20628;-59
2021/01/25 08:25:05;;;;;;;11.17;10.17;;;6.20;89.20;;;;;;5114539;28;20660;-60
2021/01/25 08:27:32;;;;;;;10.53;9.53;;;6.20;89.00;;;;;;5114579;28;20647;-58
2021/01/25 08:30:01;;;;;;;8.90;8.10;;;6.10;88.90;;;;;;5114074;28;20624;-57
2021/01/25 08:32:31;;;;;;;9.53;8.40;;;6.00;88.60;;;;;;5114091;28;20631;-58
2021/01/25 08:34:59;;;;;;;9.67;8.53;;;6.00;88.80;;;;;;5113271;28;20638;-58
2021/01/25 08:37:28;;;;;;;9.03;7.90;;;6.00;88.80;;;;;;5114107;28;20691;-58
2021/01/25 08:39:54;;;;;;;8.40;7.60;;;6.00;89.00;;;;;;5113348;28;20672;-59
2021/01/25 08:42:22;;;;;;;8.50;7.33;;;6.00;88.90;;;;;;5114057;28;20683;-60
2021/01/25 08:44:51;;;;;;;8.43;7.80;;;6.10;89.70;;;;;;5114122;28;20681;-58
2021/01/25 08:47:23;;;;;;;9.20;8.40;;;6.10;89.00;;;;;;5114104;28;20615;-59
2021/01/25 08:49:57;;;;;;;8.87;8.00;;;6.10;88.80;;;;;;5114444;28;20640;-60
2021/01/25 08:52:26;;;;;;;9.57;8.47;;;6.10;88.50;;;;;;5114288;28;20688;-59
2021/01/25 08:55:04;;;;;;;9.23;7.97;;;6.10;88.40;;;;;;5112605;28;21035;-60
2021/01/25 08:57:34;;;;;;;11.47;7.70;;;6.10;88.70;;;;;;5113222;28;20721;-59
2021/01/25 09:00:09;;;;;;;8.60;7.77;;;6.10;88.80;;;;;;5095476;28;20624;-60
2021/01/25 09:02:36;;;;;;;8.90;7.97;;;6.10;89.10;;;;;;5113584;28;20961;-58
2021/01/25 09:05:05;;;;;;;9.70;8.90;;;6.20;89.50;;;;;;5113435;28;20634;-61
2021/01/25 09:07:32;;;;;;;7.57;6.87;;;6.20;89.40;;;;;;5113974;28;21215;-58
2021/01/25 09:09:58;;;;;;;8.07;7.27;;;6.20;89.20;;;;;;5113472;28;20676;-59
2021/01/25 09:12:25;;;;;;;11.80;8.73;;;6.10;89.10;;;;;;5113451;28;20634;-58
2021/01/25 09:14:52;;;;;;;9.20;8.30;;;6.20;89.00;;;;;;5113611;28;21022;-59
2021/01/25 09:17:21;;;;;;;9.80;8.57;;;6.20;89.10;;;;;;5113855;28;20713;-59
2021/01/25 09:19:48;;;;;;;11.60;9.90;;;6.20;88.90;;;;;;5113229;28;20627;-59
2021/01/25 09:22:16;;;;;;;9.30;8.40;;;6.20;89.10;;;;;;5113307;28;20665;-60
2021/01/25 09:24:43;;;;;;;14.70;9.77;;;6.20;89.70;;;;;;5112955;28;20652;-58
2021/01/25 09:27:10;;;;;;;10.63;9.60;;;6.00;90.00;;;;;;5113123;28;20680;-59
2021/01/25 09:29:37;;;;;;;13.37;10.97;;;6.10;90.50;;;;;;5112745;28;20975;-58
2021/01/25 09:32:05;;;;;;;12.43;11.10;;;6.10;90.60;;;;;;5113613;28;21033;-60
2021/01/25 09:34:31;;;;;;;13.33;10.63;;;6.10;90.90;;;;;;5094626;28;20636;-60
2021/01/25 09:36:58;;;;;;;11.57;9.97;;;6.00;91.00;;;;;;5112849;28;21028;-60
2021/01/25 09:39:31;;;;;;;9.63;8.53;;;6.00;91.30;;;;;;5112542;28;20656;-59
2021/01/25 09:42:01;;;;;;;11.40;10.17;;;6.00;91.10;;;;;;5113228;28;20614;-60
2021/01/25 09:44:28;;;;;;;11.27;9.60;;;5.90;91.40;;;;;;5112735;28;20628;-61
2021/01/25 09:46:56;;;;;;;10.80;9.70;;;5.90;91.30;;;;;;5112725;28;20616;-59
2021/01/25 09:49:23;;;;;;;11.57;10.43;;;5.90;91.50;;;;;;5113331;28;20643;-60
2021/01/25 09:51:50;;;;;;;12.57;10.07;;;5.90;91.60;;;;;;5112615;28;20620;-61
2021/01/25 09:54:17;;;;;;;11.77;10.57;;;6.00;91.60;;;;;;5108009;28;20624;-59
2021/01/25 09:56:45;;;;;;;14.10;12.23;;;6.00;91.50;;;;;;5107591;28;20640;-61
2021/01/25 09:59:12;;;;;;;16.03;13.47;;;6.10;91.50;;;;;;5110777;28;20668;-61
2021/01/25 10:01:38;;;;;;;15.83;14.03;;;6.10;91.30;;;;;;5111916;28;20657;-62
2021/01/25 10:04:05;;;;;;;18.33;14.20;;;6.10;91.40;;;;;;5092290;28;21224;-61
2021/01/25 10:06:32;;;;;;;17.43;13.13;;;6.00;91.10;;;;;;5110744;28;20669;-62
2021/01/25 10:08:59;;;;;;;14.90;13.30;;;6.10;91.30;;;;;;5112014;28;20674;-61
2021/01/25 10:11:26;;;;;;;15.30;13.67;;;6.10;91.30;;;;;;5092916;28;21263;-61
2021/01/25 10:13:54;;;;;;;19.03;16.90;;;6.20;91.40;;;;;;5112363;28;20719;-61
2021/01/25 10:16:21;;;;;;;16.17;13.50;;;6.30;91.40;;;;;;5111499;28;20627;-63
2021/01/25 10:18:48;;;;;;;18.13;16.20;;;6.30;91.30;;;;;;5111422;28;20674;-64
2021/01/25 10:21:16;;;;;;;17.03;14.80;;;6.40;91.30;;;;;;5111097;28;20701;-60
2021/01/25 10:23:43;;;;;;;20.87;16.97;;;6.50;91.10;;;;;;5110789;28;20619;-59
2021/01/25 10:26:10;;;;;;;17.47;13.97;;;6.50;90.80;;;;;;5111352;28;20718;-59
2021/01/25 10:28:37;;;;;;;20.17;17.50;;;6.40;90.70;;;;;;5111116;28;21264;-61
2021/01/25 10:31:05;;;;;;;17.50;15.00;;;6.40;90.90;;;;;;5111867;28;20673;-59
2021/01/25 10:33:31;;;;;;;21.20;16.93;;;6.40;90.60;;;;;;5110826;28;21175;-58
2021/01/25 10:35:58;;;;;;;23.40;16.07;;;6.50;90.90;;;;;;5111377;28;20690;-58
2021/01/25 10:38:25;;;;;;;17.13;15.33;;;6.50;90.90;;;;;;5123404;22;21185;-51
2021/01/25 10:40:52;;;;;;;17.20;14.47;;;6.60;91.00;;;;;;5110744;28;20688;-51
2021/01/25 10:43:19;;;;;;;21.73;16.77;;;6.60;90.60;;;;;;5110780;28;20658;-50
2021/01/25 10:45:46;;;;;;;21.03;16.57;;;6.60;90.20;;;;;;5110034;28;20631;-51
2021/01/25 10:48:14;;;;;;;25.10;17.00;;;6.60;90.30;;;;;;5110203;28;20772;-51
2021/01/25 10:50:41;;;;;;;23.00;15.97;;;6.50;90.40;;;;;;5110159;28;20621;-51
2021/01/25 10:53:08;;;;;;;20.67;15.40;;;6.50;90.70;;;;;;5110070;28;20677;-50
2021/01/25 10:55:35;;;;;;;21.07;15.20;;;6.50;90.90;;;;;;5109796;28;20614;-51
2021/01/25 10:58:01;;;;;;;18.03;14.17;;;6.50;90.90;;;;;;5109993;28;20685;-51
2021/01/25 11:00:29;;;;;;;16.83;14.83;;;6.40;91.00;;;;;;5109892;28;20624;-52
2021/01/25 11:02:55;;;;;;;15.43;12.50;;;6.40;91.30;;;;;;5110248;28;20612;-52
2021/01/25 11:05:25;;;;;;;18.00;13.87;;;6.30;91.10;;;;;;5110506;28;21040;-51
2021/01/25 11:07:52;;;;;;;17.80;13.73;;;6.20;91.20;;;;;;5109668;28;20741;-50
2021/01/25 11:10:22;;;;;;;16.50;12.67;;;6.20;91.50;;;;;;5110399;28;20662;-52
2021/01/25 11:12:49;;;;;;;15.93;13.20;;;6.00;91.60;;;;;;5109962;28;20659;-52
2021/01/25 11:15:16;;;;;;;16.70;12.27;;;5.90;92.00;;;;;;5109754;28;20661;-50
2021/01/25 11:17:43;;;;;;;14.07;11.60;;;5.70;92.50;;;;;;5109365;28;20655;-52
2021/01/25 11:20:11;;;;;;;19.77;13.77;;;5.60;93.00;;;;;;5114202;28;20655;-52
2021/01/25 11:22:38;;;;;;;15.40;13.40;;;5.50;93.20;;;;;;5113892;28;20639;-51
2021/01/25 11:25:06;;;;;;;17.07;14.27;;;5.50;93.50;;;;;;5114208;28;20613;-53
2021/01/25 11:27:33;;;;;;;17.27;14.47;;;5.40;93.60;;;;;;5113972;28;21002;-52
2021/01/25 11:29:59;;;;;;;15.70;13.17;;;5.50;93.80;;;;;;5113754;28;21078;-52
2021/01/25 11:32:26;;;;;;;20.13;15.30;;;5.50;93.90;;;;;;5114072;28;20911;-54
2021/01/25 11:34:53;;;;;;;15.20;12.27;;;5.60;93.90;;;;;;5113791;28;20691;-54
2021/01/25 11:37:20;;;;;;;18.13;15.13;;;5.70;93.70;;;;;;5113761;28;20669;-53
2021/01/25 11:39:47;;;;;;;19.07;16.10;;;5.80;93.60;;;;;;5113440;28;21050;-51
2021/01/25 11:42:14;;;;;;;16.13;14.43;;;5.90;93.60;;;;;;5113833;28;20619;-52
2021/01/25 11:44:41;;;;;;;19.27;14.87;;;6.00;93.50;;;;;;5113800;28;20623;-52
2021/01/25 11:47:08;;;;;;;24.63;14.53;;;6.00;93.40;;;;;;5111963;28;20916;-53
2021/01/25 11:49:34;;;;;;;21.37;15.40;;;6.00;93.40;;;;;;5113519;28;21261;-53
2021/01/25 11:52:01;;;;;;;18.57;15.33;;;6.10;93.50;;;;;;5113670;28;21234;-52
2021/01/25 11:54:28;;;;;;;19.03;13.37;;;6.20;93.40;;;;;;5113761;28;20673;-52
2021/01/25 11:56:56;;;;;;;17.73;15.17;;;6.20;93.00;;;;;;5113357;28;21225;-51
2021/01/25 11:59:24;;;;;;;15.90;13.50;;;6.20;93.00;;;;;;5113936;28;20753;-52
2021/01/25 12:01:50;;;;;;;16.20;13.03;;;6.30;93.00;;;;;;5113559;28;21175;-51
2021/01/25 12:04:17;;;;;;;23.90;16.00;;;6.30;92.60;;;;;;5102533;28;20628;-52
2021/01/25 12:06:44;;;;;;;14.33;12.83;;;6.30;92.60;;;;;;5113218;28;20678;-54
2021/01/25 12:09:11;;;;;;;16.73;14.70;;;6.30;92.60;;;;;;5113135;28;21054;-53
2021/01/25 12:11:38;;;;;;;20.53;15.13;;;6.30;92.70;;;;;;5113600;28;20625;-53
2021/01/25 12:14:05;;;;;;;13.63;11.73;;;6.20;92.70;;;;;;5112729;28;20619;-52
2021/01/25 12:16:32;;;;;;;14.13;12.60;;;6.10;92.70;;;;;;5113653;28;20681;-54
2021/01/25 12:18:59;;;;;;;17.57;14.20;;;6.10;92.70;;;;;;5113161;28;20677;-53
2021/01/25 12:21:26;;;;;;;12.33;11.03;;;6.20;92.90;;;;;;5113745;28;20682;-54
2021/01/25 12:23:53;;;;;;;13.00;11.70;;;6.20;92.60;;;;;;5112364;28;20636;-55
2021/01/25 12:26:20;;;;;;;16.20;13.50;;;6.20;92.30;;;;;;5113918;28;20613;-52
2021/01/25 12:28:46;;;;;;;12.10;10.83;;;6.20;92.60;;;;;;5112259;28;20690;-54
2021/01/25 12:31:14;;;;;;;8.07;7.17;;;6.20;92.60;;;;;;5113304;28;20689;-54
2021/01/25 12:33:41;;;;;;;12.63;11.33;;;6.30;92.80;;;;;;5112872;28;20682;-54
2021/01/25 12:36:08;;;;;;;11.47;10.10;;;6.30;93.30;;;;;;5113239;28;21189;-53
2021/01/25 12:38:35;;;;;;;13.70;10.97;;;6.40;92.60;;;;;;5112643;28;20723;-53
2021/01/25 12:41:01;;;;;;;11.50;10.30;;;6.50;92.50;;;;;;5112592;28;20657;-53
2021/01/25 12:43:28;;;;;;;13.50;12.10;;;6.50;92.00;;;;;;5112688;28;20667;-54
2021/01/25 12:45:55;;;;;;;17.70;13.67;;;6.50;92.00;;;;;;5112226;28;20626;-54
2021/01/25 12:48:23;;;;;;;11.27;10.20;;;6.50;92.00;;;;;;5112706;28;20691;-54
2021/01/25 12:50:50;;;;;;;12.90;11.63;;;6.50;91.80;;;;;;5112440;28;20710;-55